»·PEaware :: AAL258 KLAS-KSAN

AAL258 :: KLAS-KSAN

FLIGHT INFORMATION

Flight Status: Arrived
Operator:
American Airlines
More flights by this operator :: More flights under this callsign
Pilot: Brad M. (22842)
Aircraft: AIRBUS A321
(A321)
More flights by this aircraft type
Origin: KLAS McCarran Intl
United States
Destination: KSAN San Diego Intl-Lindbergh
United States
More flights between these airports :: More routes between these airports
Route: +BOACH8 LVELL LUCKI1
File this flight plan on PilotEdge
Remarks:
Altitude:
(Current/Filed)
30,000ft
Speed:
(Current/Filed)
463kts
Departed: 10-Nov-20 05:06 PM
Arrived: 10-Nov-20 05:48 PM
Distance/Time
Traveled:
225nm/0:42
Distance/Time
To Go:
Arrived

Flight Plot

Page will automatically refresh every two minutes.

Flight plan parsing failed; only flown route is shown


Map Options




Map Legend


Flown Route
Filed Route
Departure Airport
Arrival Airport
Navaid (VOR, NDB)
Fix

Horizontal Profiles

Position Reports

Time Latitude Longitude Heading Altitude Ground
Speed
10-Nov-20 16:41 36.080212 -115.136035 66 2195ft 0kts
10-Nov-20 16:42 36.080212 -115.136035 66 2195ft 0kts
10-Nov-20 16:43 36.080212 -115.136035 66 2195ft 0kts
10-Nov-20 16:44 36.080212 -115.136035 66 2195ft 0kts
10-Nov-20 16:45 36.080212 -115.136035 66 2195ft 0kts
10-Nov-20 16:46 36.080212 -115.136035 66 2195ft 0kts
10-Nov-20 16:47 36.080212 -115.136035 66 2195ft 0kts
10-Nov-20 16:48 36.080212 -115.136035 66 2195ft 0kts
10-Nov-20 16:49 36.080212 -115.136035 66 2195ft 0kts
10-Nov-20 16:50 36.080212 -115.136035 66 2195ft 0kts
10-Nov-20 16:51 36.080212 -115.136035 66 2195ft 0kts
10-Nov-20 16:52 36.080212 -115.136035 66 2195ft 0kts
10-Nov-20 16:53 36.080102 -115.136353 66 2195ft 2kts
10-Nov-20 16:54 36.080023 -115.137240 131 2195ft 2kts
10-Nov-20 16:55 36.080072 -115.137308 135 2195ft 0kts
10-Nov-20 16:56 36.080072 -115.137307 135 2195ft 0kts
10-Nov-20 16:57 36.079581 -115.136706 135 2195ft 8kts
10-Nov-20 16:58 36.078274 -115.134661 93 2195ft 11kts
10-Nov-20 16:59 36.078276 -115.129169 89 2195ft 18kts
10-Nov-20 16:59 36.078269 -115.126790 91 2195ft 5kts
10-Nov-20 17:01 36.078214 -115.122572 115 2195ft 7kts
10-Nov-20 17:01 36.077680 -115.121762 129 2195ft 3kts
10-Nov-20 17:03 36.077447 -115.121416 133 2195ft 0kts
10-Nov-20 17:03 36.077419 -115.121381 134 2195ft 1kts
10-Nov-20 17:04 36.076418 -115.121684 270 2195ft 0kts
10-Nov-20 17:05 36.076407 -115.130201 270 2195ft 115kts
10-Nov-20 17:06 36.076538 -115.183304 271 3773ft 168kts
10-Nov-20 17:07 36.071085 -115.252038 234 5111ft 239kts
10-Nov-20 17:08 36.003490 -115.285420 201 7377ft 279kts
10-Nov-20 17:09 35.925754 -115.307865 184 10071ft 299kts
10-Nov-20 17:10 35.833740 -115.313386 176 11272ft 370kts
10-Nov-20 17:11 35.722114 -115.299409 175 12229ft 429kts
10-Nov-20 17:12 35.601784 -115.297316 184 14576ft 435kts
10-Nov-20 17:13 35.479135 -115.302717 184 16571ft 449kts
10-Nov-20 17:14 35.352569 -115.307602 185 18415ft 460kts
10-Nov-20 17:15 35.222939 -115.312697 186 20099ft 470kts
10-Nov-20 17:16 35.090699 -115.317785 186 21591ft 480kts
10-Nov-20 17:17 34.955892 -115.323008 186 22946ft 489kts
10-Nov-20 17:18 34.818776 -115.328360 186 24172ft 496kts
10-Nov-20 17:19 34.689441 -115.370101 206 25691ft 476kts
10-Nov-20 17:20 34.565348 -115.425183 204 27218ft 472kts
10-Nov-20 17:21 34.442420 -115.478804 205 28187ft 467kts
10-Nov-20 17:22 34.320985 -115.533407 212 28170ft 461kts
10-Nov-20 17:23 34.211135 -115.612075 210 28170ft 463kts
10-Nov-20 17:24 34.090305 -115.669385 207 28212ft 466kts
10-Nov-20 17:25 33.970122 -115.727791 207 28195ft 466kts
10-Nov-20 17:26 33.849709 -115.785078 207 28168ft 466kts
10-Nov-20 17:27 33.729527 -115.842488 207 27741ft 462kts
10-Nov-20 17:28 33.609074 -115.899770 207 26720ft 469kts
10-Nov-20 17:29 33.497036 -115.974281 233 24721ft 449kts
10-Nov-20 17:30 33.428588 -116.094329 239 22213ft 427kts
10-Nov-20 17:31 33.360996 -116.209138 239 19967ft 417kts
10-Nov-20 17:32 33.268313 -116.292026 208 17836ft 423kts
10-Nov-20 17:33 33.168992 -116.348153 211 17039ft 365kts
10-Nov-20 17:34 33.080969 -116.400169 210 14711ft 350kts
10-Nov-20 17:35 32.996201 -116.452583 221 12501ft 328kts
10-Nov-20 17:36 32.926609 -116.524007 223 10710ft 328kts
10-Nov-20 17:37 32.858922 -116.591938 221 9240ft 312kts
10-Nov-20 17:38 32.793435 -116.657929 220 7993ft 306kts
10-Nov-20 17:39 32.744864 -116.737684 243 7132ft 300kts
10-Nov-20 17:40 32.705876 -116.823309 246 5974ft 279kts
10-Nov-20 17:41 32.681157 -116.903756 250 5459ft 234kts
10-Nov-20 17:42 32.674735 -116.971302 295 4628ft 192kts
10-Nov-20 17:43 32.694782 -117.029147 288 3630ft 189kts
10-Nov-20 17:44 32.708316 -117.087956 285 2758ft 170kts
10-Nov-20 17:45 32.721203 -117.139039 289 1209ft 151kts
10-Nov-20 17:46 32.732235 -117.184263 288 38ft 124kts
10-Nov-20 17:47 32.734947 -117.198908 254 29ft 9kts
10-Nov-20 17:48 32.735478 -117.201910 284 29ft 7kts
10-Nov-20 17:49 32.735648 -117.204412 220 29ft 6kts
10-Nov-20 17:50 32.734605 -117.204615 137 29ft 1kts
10-Nov-20 17:51 32.734579 -117.204586 137 29ft 0kts
10-Nov-20 17:52 32.734579 -117.204586 137 29ft 0kts
10-Nov-20 17:53 32.734579 -117.204586 137 29ft 0kts
10-Nov-20 17:54 32.734579 -117.204586 137 29ft 0kts

Navigation Log

Ident Type
Flight plan parsing failed, navigation log unavailable